createdAt,value
2018-09-04T00:02:11.031Z,21.57
2018-09-04T00:04:40.089Z,15.83
2018-09-04T00:07:10.281Z,13.17
2018-09-04T00:09:39.211Z,12.63
2018-09-04T00:12:08.131Z,21.90
2018-09-04T00:14:37.006Z,28.73
2018-09-04T00:17:07.186Z,21.60
2018-09-04T00:19:36.090Z,28.93
2018-09-04T00:22:06.106Z,32.83
2018-09-04T00:24:35.047Z,44.27
2018-09-04T00:27:03.845Z,26.23
2018-09-04T00:29:32.831Z,16.50
2018-09-04T00:32:01.991Z,18.33
2018-09-04T00:34:32.213Z,16.90
2018-09-04T00:37:01.066Z,13.57
2018-09-04T00:39:29.991Z,12.83
2018-09-04T00:41:58.930Z,15.17
2018-09-04T00:44:27.848Z,12.17
2018-09-04T00:46:56.744Z,15.70
2018-09-04T00:49:25.759Z,17.40
2018-09-04T00:51:54.968Z,15.93
2018-09-04T00:54:23.872Z,16.87
2018-09-04T00:56:52.785Z,19.47
2018-09-04T00:59:21.751Z,12.67
2018-09-04T01:01:50.641Z,16.30
2018-09-04T01:04:19.607Z,12.70
2018-09-04T01:06:48.554Z,13.73
2018-09-04T01:09:19.647Z,16.33
2018-09-04T01:11:48.863Z,14.80
2018-09-04T01:14:17.763Z,14.93
2018-09-04T01:16:46.830Z,11.90
2018-09-04T01:19:15.958Z,11.53
2018-09-04T01:21:44.887Z,10.70
2018-09-04T01:24:13.737Z,9.60
2018-09-04T01:26:42.663Z,11.73
2018-09-04T01:29:11.687Z,14.17
2018-09-04T01:31:40.650Z,17.73
2018-09-04T01:34:09.619Z,15.87
2018-09-04T01:36:38.801Z,13.13
2018-09-04T01:39:08.171Z,14.30
2018-09-04T01:41:37.079Z,14.90
2018-09-04T01:44:06.103Z,21.00
2018-09-04T01:46:35.080Z,21.57
2018-09-04T01:49:04.019Z,17.07
2018-09-04T01:51:32.919Z,13.17
2018-09-04T01:54:01.821Z,11.03
2018-09-04T01:56:30.738Z,12.17
2018-09-04T01:58:59.686Z,12.07
2018-09-04T02:01:28.685Z,12.97
2018-09-04T02:03:57.632Z,12.00
2018-09-04T02:06:27.973Z,15.53
2018-09-04T02:08:56.899Z,11.63
2018-09-04T02:11:25.826Z,10.63
2018-09-04T02:13:54.944Z,18.70
2018-09-04T02:16:23.949Z,21.83
2018-09-04T02:18:52.807Z,16.90
2018-09-04T02:21:21.739Z,15.00
2018-09-04T02:23:50.862Z,18.90
2018-09-04T02:26:19.760Z,17.80
2018-09-04T02:28:48.642Z,16.50
2018-09-04T02:31:17.689Z,13.70
2018-09-04T02:33:46.562Z,11.93
2018-09-04T02:36:15.417Z,17.87
2018-09-04T02:38:44.402Z,15.47
2018-09-04T02:41:13.366Z,14.87
2018-09-04T02:43:42.422Z,13.50
2018-09-04T02:46:11.272Z,11.77
2018-09-04T02:48:40.163Z,15.83
2018-09-04T02:51:09.194Z,14.30
2018-09-04T02:53:38.593Z,15.97
2018-09-04T02:56:07.468Z,13.87
2018-09-04T02:58:36.504Z,16.03
2018-09-04T03:01:05.533Z,18.60
2018-09-04T03:03:34.465Z,16.07
2018-09-04T03:06:03.362Z,16.07
2018-09-04T03:08:32.388Z,17.33
2018-09-04T03:11:01.338Z,18.53
2018-09-04T03:13:30.353Z,16.57
2018-09-04T03:15:59.238Z,13.63
2018-09-04T03:18:28.098Z,14.57
2018-09-04T03:20:57.089Z,17.33
2018-09-04T03:23:26.145Z,13.60
2018-09-04T03:25:54.982Z,16.47
2018-09-04T03:28:23.993Z,17.00
2018-09-04T03:30:53.142Z,19.80
2018-09-04T03:33:22.054Z,14.33
2018-09-04T03:35:51.221Z,14.57
2018-09-04T03:38:20.128Z,16.43
2018-09-04T03:40:48.977Z,16.33
2018-09-04T03:43:17.947Z,13.27
2018-09-04T03:45:46.955Z,9.80
2018-09-04T03:48:15.928Z,12.53
2018-09-04T03:50:44.997Z,8.33
2018-09-04T03:53:13.918Z,13.47
2018-09-04T03:55:42.713Z,9.07
2018-09-04T03:58:11.682Z,10.33
2018-09-04T04:00:40.683Z,14.20
2018-09-04T04:03:09.698Z,10.60
2018-09-04T04:05:39.967Z,12.23
2018-09-04T04:08:08.931Z,21.30
2018-09-04T04:10:37.820Z,19.57
2018-09-04T04:13:06.904Z,11.07
2018-09-04T04:15:37.061Z,11.70
2018-09-04T04:18:06.560Z,28.40
2018-09-04T04:20:37.034Z,9.50
2018-09-04T04:23:07.487Z,8.43
2018-09-04T04:25:36.389Z,9.30
2018-09-04T04:28:06.726Z,15.63
2018-09-04T04:30:35.640Z,10.70
2018-09-04T04:33:04.742Z,18.53
2018-09-04T04:35:33.705Z,14.70
2018-09-04T04:38:02.620Z,13.87
2018-09-04T04:40:31.533Z,14.97
2018-09-04T04:43:01.734Z,13.90
2018-09-04T04:45:30.629Z,14.37
2018-09-04T04:47:59.656Z,26.60
2018-09-04T04:50:28.748Z,26.67
2018-09-04T04:52:57.788Z,26.73
2018-09-04T04:55:26.756Z,24.50
2018-09-04T04:57:55.618Z,20.50
2018-09-04T05:00:25.974Z,17.33
2018-09-04T05:02:54.935Z,25.23
2018-09-04T05:05:23.898Z,27.73
2018-09-04T05:07:52.847Z,30.67
2018-09-04T05:10:21.657Z,23.33
2018-09-04T05:12:50.685Z,22.77
2018-09-04T05:15:19.593Z,19.47
2018-09-04T05:17:48.571Z,19.17
2018-09-04T05:20:23.084Z,20.47
2018-09-04T05:22:52.014Z,27.03
2018-09-04T05:25:21.136Z,26.73
2018-09-04T05:27:50.235Z,37.13
2018-09-04T05:30:20.717Z,30.33
2018-09-04T05:32:54.678Z,32.33
2018-09-04T05:35:23.768Z,26.63
2018-09-04T05:37:52.768Z,23.73
2018-09-04T05:40:21.771Z,38.27
2018-09-04T05:42:58.285Z,29.10
2018-09-04T05:45:30.106Z,25.03
2018-09-04T05:48:12.305Z,18.90
2018-09-04T05:50:41.374Z,20.17
2018-09-04T05:53:10.360Z,16.80
2018-09-04T05:55:39.283Z,18.50
2018-09-04T05:58:08.246Z,20.43
2018-09-04T06:00:46.637Z,22.73
2018-09-04T06:03:15.635Z,24.30
2018-09-04T06:05:44.563Z,26.03
2018-09-04T06:08:13.477Z,22.37
2018-09-04T06:10:42.345Z,21.13
2018-09-04T06:13:11.368Z,30.47
2018-09-04T06:15:40.218Z,22.13
2018-09-04T06:18:09.291Z,24.67
2018-09-04T06:20:38.264Z,29.43
2018-09-04T06:23:07.535Z,23.83
2018-09-04T06:25:39.196Z,23.00
2018-09-04T06:28:08.106Z,23.43
2018-09-04T06:30:37.131Z,32.20
2018-09-04T06:33:06.075Z,24.17
2018-09-04T06:35:35.056Z,20.93
2018-09-04T06:38:03.971Z,18.37
2018-09-04T06:40:32.873Z,26.10
2018-09-04T06:43:01.806Z,17.90
2018-09-04T06:45:30.839Z,17.47
2018-09-04T06:47:59.790Z,22.45
2018-09-04T06:50:28.750Z,20.13
2018-09-04T06:52:57.664Z,22.80
2018-09-04T06:55:27.923Z,17.83
2018-09-04T06:57:56.865Z,17.67
2018-09-04T07:00:25.758Z,24.97
2018-09-04T07:02:55.931Z,17.43
2018-09-04T07:05:24.888Z,20.73
2018-09-04T07:07:53.868Z,14.77
2018-09-04T07:10:22.801Z,24.13
2018-09-04T07:12:52.993Z,20.17
2018-09-04T07:15:21.913Z,18.93
2018-09-04T07:17:50.811Z,23.13
2018-09-04T07:20:21.204Z,13.37
2018-09-04T07:22:50.311Z,25.63
2018-09-04T07:25:19.218Z,18.60
2018-09-04T07:27:48.493Z,16.87
2018-09-04T07:30:17.397Z,21.50
2018-09-04T07:32:46.480Z,16.90
2018-09-04T07:35:16.972Z,20.30
2018-09-04T07:37:45.879Z,17.67
2018-09-04T07:40:14.809Z,16.63
2018-09-04T07:42:43.737Z,20.90
2018-09-04T07:45:12.681Z,15.37
2018-09-04T07:47:41.496Z,14.80
2018-09-04T07:50:12.408Z,13.57
2018-09-04T07:52:41.313Z,18.53
2018-09-04T07:55:10.213Z,18.13
2018-09-04T07:57:41.551Z,17.73
2018-09-04T08:00:10.684Z,16.93
2018-09-04T08:02:39.627Z,20.83
2018-09-04T08:05:08.613Z,21.53
2018-09-04T08:07:37.727Z,17.07
2018-09-04T08:10:06.725Z,12.10
2018-09-04T08:12:35.603Z,17.00
2018-09-04T08:15:04.617Z,16.63
2018-09-04T08:17:33.585Z,15.60
2018-09-04T08:20:02.573Z,21.37
2018-09-04T08:22:31.421Z,19.07
2018-09-04T08:25:00.379Z,37.50
2018-09-04T08:27:29.289Z,17.13
2018-09-04T08:29:59.552Z,27.77
2018-09-04T08:32:28.546Z,17.37
2018-09-04T08:34:57.476Z,24.00
2018-09-04T08:37:26.342Z,22.80
2018-09-04T08:39:56.585Z,24.43
2018-09-04T08:42:25.512Z,52.37
2018-09-04T08:44:54.420Z,45.17
2018-09-04T08:47:23.433Z,28.77
2018-09-04T08:49:52.281Z,20.00
2018-09-04T08:52:21.373Z,27.30
2018-09-04T08:54:51.816Z,23.47
2018-09-04T08:57:20.812Z,29.17
2018-09-04T08:59:49.809Z,23.40
2018-09-04T09:02:18.761Z,35.93
2018-09-04T09:04:47.722Z,21.63
2018-09-04T09:07:16.689Z,24.83
2018-09-04T09:09:45.710Z,20.40
2018-09-04T09:12:14.649Z,19.40
2018-09-04T09:14:43.589Z,15.93
2018-09-04T09:17:13.901Z,24.07
2018-09-04T09:19:42.864Z,46.33
2018-09-04T09:22:11.737Z,17.73
2018-09-04T09:24:40.779Z,16.93
2018-09-04T09:27:10.063Z,13.00
2018-09-04T09:29:38.957Z,14.80
2018-09-04T09:32:07.886Z,17.53
2018-09-04T09:34:36.805Z,10.30
2018-09-04T09:37:05.834Z,12.70
2018-09-04T09:39:34.879Z,12.43
2018-09-04T09:42:03.899Z,13.03
2018-09-04T09:44:32.833Z,13.03
2018-09-04T09:47:03.782Z,9.87
2018-09-04T09:49:33.526Z,8.67
2018-09-04T09:52:02.480Z,14.10
2018-09-04T09:54:31.500Z,12.47
2018-09-04T09:57:00.469Z,14.57
2018-09-04T09:59:29.489Z,18.70
2018-09-04T10:02:03.484Z,9.43
2018-09-04T10:04:33.933Z,11.37
2018-09-04T10:07:02.792Z,8.33
2018-09-04T10:09:31.702Z,10.33
2018-09-04T10:12:00.800Z,11.83
2018-09-04T10:14:29.730Z,13.07
2018-09-04T10:16:59.975Z,12.53
2018-09-04T10:19:28.922Z,13.03
2018-09-04T10:21:57.831Z,20.50
2018-09-04T10:24:26.761Z,10.80
2018-09-04T10:26:55.803Z,13.90
2018-09-04T10:29:24.687Z,12.43
2018-09-04T10:31:53.529Z,14.80
2018-09-04T10:34:23.579Z,13.33
2018-09-04T10:36:52.416Z,9.10
2018-09-04T10:39:26.547Z,11.70
2018-09-04T10:41:55.399Z,14.97
2018-09-04T10:44:24.377Z,16.03
2018-09-04T10:46:56.821Z,11.97
2018-09-04T10:49:25.862Z,15.33
2018-09-04T10:51:54.737Z,13.80
2018-09-04T10:54:24.918Z,15.57
2018-09-04T10:56:53.797Z,15.20
2018-09-04T10:59:22.619Z,10.23
2018-09-04T11:01:51.473Z,10.90
2018-09-04T11:04:20.295Z,10.17
2018-09-04T11:06:50.454Z,14.67
2018-09-04T11:09:19.406Z,11.83
2018-09-04T11:11:48.254Z,12.13
2018-09-04T11:14:17.232Z,12.40
2018-09-04T11:16:47.355Z,17.57
2018-09-04T11:19:16.141Z,11.57
2018-09-04T11:21:44.953Z,8.97
2018-09-04T11:24:14.989Z,13.60
2018-09-04T11:26:43.808Z,12.93
2018-09-04T11:29:13.441Z,13.00
2018-09-04T11:31:42.312Z,11.93
2018-09-04T11:34:11.285Z,10.43
2018-09-04T11:36:40.109Z,9.50
2018-09-04T11:39:11.842Z,10.27
2018-09-04T11:41:40.766Z,13.43
2018-09-04T11:44:09.578Z,15.50
2018-09-04T11:46:39.746Z,9.73
2018-09-04T11:49:08.555Z,11.23
2018-09-04T11:51:37.355Z,15.67
2018-09-04T11:54:06.485Z,7.87
2018-09-04T11:56:40.082Z,13.17
2018-09-04T12:01:47.273Z,12.37
2018-09-04T12:04:17.466Z,12.90
2018-09-04T12:06:47.825Z,8.47
2018-09-04T12:09:16.690Z,15.93
2018-09-04T12:11:50.834Z,12.30
2018-09-04T12:14:19.734Z,12.60
2018-09-04T12:16:48.575Z,9.23
2018-09-04T12:19:18.977Z,14.10
2018-09-04T12:21:47.984Z,8.47
2018-09-04T12:24:16.940Z,9.03
2018-09-04T12:26:45.905Z,12.70
2018-09-04T12:29:14.786Z,15.77
2018-09-04T12:31:43.771Z,14.43
2018-09-04T12:34:14.140Z,10.10
2018-09-04T12:36:43.034Z,10.70
2018-09-04T12:39:11.885Z,11.27
2018-09-04T12:41:40.737Z,11.73
2018-09-04T12:44:09.676Z,10.50
2018-09-04T12:46:38.611Z,10.97
2018-09-04T12:49:07.557Z,16.57
2018-09-04T12:51:36.545Z,11.73
2018-09-04T12:54:05.368Z,10.70
2018-09-04T12:56:34.196Z,12.17
2018-09-04T12:59:03.049Z,10.82
2018-09-04T13:01:31.917Z,12.30
2018-09-04T13:04:00.773Z,11.77
2018-09-04T13:06:29.622Z,11.97
2018-09-04T13:08:58.479Z,12.33
2018-09-04T13:11:27.346Z,10.05
2018-09-04T13:13:56.192Z,9.73
2018-09-04T13:16:25.174Z,6.40
2018-09-04T13:18:54.079Z,17.98
2018-09-04T13:21:24.831Z,11.35
2018-09-04T13:23:53.608Z,17.55
2018-09-04T13:26:22.460Z,12.13
2018-09-04T13:28:51.422Z,12.63
2018-09-04T13:31:20.239Z,11.12
2018-09-04T13:33:49.200Z,13.43
2018-09-04T13:36:19.313Z,16.73
2018-09-04T13:38:48.249Z,17.27
2018-09-04T13:41:17.092Z,9.30
2018-09-04T13:43:45.973Z,11.70
2018-09-04T13:46:14.918Z,17.03
2018-09-04T13:48:43.816Z,15.45
2018-09-04T13:51:12.778Z,11.43
2018-09-04T13:53:41.699Z,12.57
2018-09-04T13:56:10.559Z,10.40
2018-09-04T13:58:39.377Z,11.40
2018-09-04T14:01:08.234Z,11.13
2018-09-04T14:03:37.046Z,9.40
2018-09-04T14:06:06.123Z,22.75
2018-09-04T14:08:36.528Z,12.58
2018-09-04T14:11:05.403Z,11.37
2018-09-04T14:13:34.198Z,11.53
2018-09-04T14:16:04.831Z,10.20
2018-09-04T14:18:33.671Z,12.33
2018-09-04T14:21:02.608Z,10.68
2018-09-04T14:23:31.374Z,15.18
2018-09-04T14:26:00.233Z,7.90
2018-09-04T14:28:43.997Z,8.55
2018-09-04T14:30:57.950Z,10.03
2018-09-04T14:33:26.884Z,11.37
2018-09-04T14:35:55.872Z,9.60
2018-09-04T14:38:25.905Z,11.83
2018-09-04T14:40:54.757Z,13.25
2018-09-04T14:43:23.697Z,12.53
2018-09-04T14:45:54.008Z,16.73
2018-09-04T14:48:24.549Z,9.63
2018-09-04T14:50:53.880Z,10.53
2018-09-04T14:53:25.172Z,8.77
2018-09-04T14:55:53.979Z,11.63
2018-09-04T14:58:22.814Z,15.43
2018-09-04T15:00:53.116Z,12.78
2018-09-04T15:03:22.784Z,14.60
2018-09-04T15:05:51.812Z,8.00
2018-09-04T15:08:20.569Z,9.50
2018-09-04T15:10:49.536Z,11.85
2018-09-04T15:13:18.425Z,11.70
2018-09-04T15:15:47.260Z,10.20
2018-09-04T15:18:16.126Z,15.93
2018-09-04T15:20:45.019Z,15.87
2018-09-04T15:23:13.897Z,14.87
2018-09-04T15:25:42.859Z,13.20
2018-09-04T15:28:11.798Z,15.03
2018-09-04T15:30:40.658Z,11.77
2018-09-04T15:33:09.588Z,18.30
2018-09-04T15:35:39.837Z,11.70
2018-09-04T15:38:11.420Z,17.37
2018-09-04T15:40:41.524Z,10.83
2018-09-04T15:43:10.408Z,16.05
2018-09-04T15:45:39.269Z,11.17
2018-09-04T15:48:08.176Z,12.00
2018-09-04T15:50:38.521Z,16.73
2018-09-04T15:53:07.618Z,19.33
2018-09-04T15:55:36.454Z,18.43
2018-09-04T15:58:05.385Z,21.63
2018-09-04T16:00:34.176Z,13.13
2018-09-04T16:03:03.261Z,16.40
2018-09-04T16:05:32.226Z,13.60
2018-09-04T16:08:01.106Z,14.60
2018-09-04T16:10:30.020Z,16.30
2018-09-04T16:12:58.919Z,13.73
2018-09-04T16:15:27.781Z,9.40
2018-09-04T16:17:56.652Z,16.67
2018-09-04T16:20:25.530Z,14.47
2018-09-04T16:22:54.356Z,15.17
2018-09-04T16:25:23.272Z,17.23
2018-09-04T16:27:53.534Z,15.77
2018-09-04T16:30:22.373Z,12.93
2018-09-04T16:32:51.260Z,15.27
2018-09-04T16:35:20.115Z,14.47
2018-09-04T16:37:48.982Z,16.20
2018-09-04T16:40:17.938Z,14.50
2018-09-04T16:42:46.904Z,18.53
2018-09-04T16:45:15.791Z,17.30
2018-09-04T16:47:44.629Z,13.53
2018-09-04T16:50:14.878Z,15.20
2018-09-04T16:52:43.784Z,15.27
2018-09-04T16:55:12.680Z,13.70
2018-09-04T16:57:41.588Z,12.83
2018-09-04T17:00:11.699Z,14.67
2018-09-04T17:02:40.629Z,17.00
2018-09-04T17:05:09.618Z,16.73
2018-09-04T17:07:38.485Z,19.33
2018-09-04T17:10:07.537Z,15.53
2018-09-04T17:12:36.432Z,15.20
2018-09-04T17:15:05.399Z,17.10
2018-09-04T17:17:34.217Z,22.67
2018-09-04T17:20:03.182Z,19.20
2018-09-04T17:22:32.047Z,15.07
2018-09-04T17:25:00.877Z,17.87
2018-09-04T17:27:29.707Z,13.10
2018-09-04T17:29:58.573Z,12.80
2018-09-04T17:32:27.534Z,12.57
2018-09-04T17:34:56.420Z,14.53
2018-09-04T17:37:25.377Z,9.70
2018-09-04T17:39:54.532Z,18.90
2018-09-04T17:42:23.317Z,18.30
2018-09-04T17:44:52.521Z,14.50
2018-09-04T17:47:21.591Z,14.63
2018-09-04T17:49:50.416Z,22.20
2018-09-04T17:52:19.252Z,10.73
2018-09-04T17:54:49.385Z,11.27
2018-09-04T17:57:18.356Z,17.33
2018-09-04T17:59:47.238Z,15.17
2018-09-04T18:02:16.186Z,14.50
2018-09-04T18:04:45.065Z,17.17
2018-09-04T18:07:13.937Z,17.90
2018-09-04T18:09:44.087Z,17.70
2018-09-04T18:12:12.981Z,15.27
2018-09-04T18:14:41.808Z,17.73
2018-09-04T18:17:10.774Z,15.30
2018-09-04T18:19:39.761Z,22.40
2018-09-04T18:22:08.628Z,17.73
2018-09-04T18:24:37.541Z,11.60
2018-09-04T18:27:06.423Z,21.07
2018-09-04T18:29:35.261Z,19.10
2018-09-04T18:32:04.425Z,15.73
2018-09-04T18:34:33.322Z,13.67
2018-09-04T18:37:03.513Z,14.87
2018-09-04T18:39:32.498Z,19.53
2018-09-04T18:42:01.380Z,16.20
2018-09-04T18:44:30.562Z,14.60
2018-09-04T18:46:59.458Z,19.57
2018-09-04T18:49:28.349Z,15.93
2018-09-04T18:51:57.249Z,20.30
2018-09-04T18:54:26.078Z,11.57
2018-09-04T18:56:54.925Z,16.03
2018-09-04T18:59:25.508Z,13.70
2018-09-04T19:01:54.282Z,10.00
2018-09-04T19:04:23.111Z,13.60
2018-09-04T19:06:53.388Z,12.90
2018-09-04T19:09:22.270Z,13.27
2018-09-04T19:11:51.153Z,12.70
2018-09-04T19:14:20.050Z,15.63
2018-09-04T19:16:48.929Z,17.27
2018-09-04T19:19:17.875Z,17.90
2018-09-04T19:21:46.817Z,15.03
2018-09-04T19:24:16.501Z,14.27
2018-09-04T19:26:45.378Z,13.47
2018-09-04T19:29:14.186Z,12.37
2018-09-04T19:31:43.149Z,12.17
2018-09-04T19:34:11.997Z,13.97
2018-09-04T19:36:40.892Z,18.10
2018-09-04T19:39:10.479Z,9.87
2018-09-04T19:41:40.654Z,14.53
2018-09-04T19:44:09.499Z,12.03
2018-09-04T19:46:39.701Z,14.53
2018-09-04T19:49:08.709Z,12.80
2018-09-04T19:51:37.486Z,12.87
2018-09-04T19:54:07.796Z,14.80
2018-09-04T19:56:42.761Z,10.07
2018-09-04T19:59:11.698Z,13.20
2018-09-04T20:01:41.087Z,12.43
2018-09-04T20:04:09.953Z,15.27
2018-09-04T20:06:40.252Z,21.00
2018-09-04T20:09:09.246Z,18.93
2018-09-04T20:11:38.169Z,12.90
2018-09-04T20:14:07.010Z,11.23
2018-09-04T20:16:35.867Z,10.73
2018-09-04T20:19:06.117Z,18.63
2018-09-04T20:21:35.054Z,18.80
2018-09-04T20:24:03.941Z,16.00
2018-09-04T20:26:34.242Z,20.40
2018-09-04T20:29:04.375Z,13.97
2018-09-04T20:31:33.358Z,12.17
2018-09-04T20:34:02.194Z,14.33
2018-09-04T20:36:32.461Z,16.10
2018-09-04T20:39:01.430Z,16.33
2018-09-04T20:41:30.397Z,13.73
2018-09-04T20:44:00.804Z,13.93
2018-09-04T20:46:29.708Z,15.63
2018-09-04T20:48:58.564Z,12.50
2018-09-04T20:51:27.381Z,14.97
2018-09-04T20:53:56.336Z,10.53
2018-09-04T20:56:25.348Z,14.13
2018-09-04T20:59:05.137Z,12.63
2018-09-04T21:01:46.009Z,11.87
2018-09-04T21:04:26.106Z,11.53
2018-09-04T21:06:54.868Z,10.97
2018-09-04T21:09:39.976Z,13.70
2018-09-04T21:12:09.189Z,15.87
2018-09-04T21:14:39.383Z,10.20
2018-09-04T21:17:08.360Z,12.67
2018-09-04T21:19:37.286Z,9.33
2018-09-04T21:22:06.277Z,14.10
2018-09-04T21:24:35.141Z,11.10
2018-09-04T21:27:04.070Z,12.10
2018-09-04T21:29:33.101Z,12.97
2018-09-04T21:32:01.874Z,10.57
2018-09-04T21:34:30.804Z,17.63
2018-09-04T21:36:59.800Z,13.13
2018-09-04T21:39:28.618Z,12.77
2018-09-04T21:41:57.522Z,12.80
2018-09-04T21:44:26.436Z,12.57
2018-09-04T21:46:55.217Z,13.57
2018-09-04T21:49:24.083Z,13.53
2018-09-04T21:51:52.991Z,15.68
2018-09-04T21:54:21.874Z,15.47
2018-09-04T21:56:50.710Z,12.07
2018-09-04T21:59:19.589Z,10.23
2018-09-04T22:01:48.575Z,9.97
2018-09-04T22:04:17.649Z,12.93
2018-09-04T22:06:46.855Z,13.10
2018-09-04T22:09:15.795Z,12.67
2018-09-04T22:11:44.697Z,14.80
2018-09-04T22:14:13.537Z,12.57
2018-09-04T22:16:42.391Z,14.77
2018-09-04T22:19:11.801Z,12.83
2018-09-04T22:21:40.713Z,13.90
2018-09-04T22:24:09.577Z,13.97
2018-09-04T22:26:38.531Z,15.37
2018-09-04T22:29:07.429Z,9.97
2018-09-04T22:31:36.289Z,12.67
2018-09-04T22:34:05.252Z,11.30
2018-09-04T22:36:34.139Z,13.70
2018-09-04T22:39:03.097Z,13.23
2018-09-04T22:41:31.922Z,12.83
2018-09-04T22:44:00.672Z,9.27
2018-09-04T22:46:29.523Z,11.40
2018-09-04T22:48:58.714Z,13.67
2018-09-04T22:51:32.545Z,16.80
2018-09-04T22:54:01.447Z,12.20
2018-09-04T22:56:30.341Z,11.33
2018-09-04T22:58:59.563Z,12.03
2018-09-04T23:01:28.457Z,15.10
2018-09-04T23:03:57.351Z,9.83
2018-09-04T23:06:27.705Z,15.17
2018-09-04T23:08:56.590Z,16.17
2018-09-04T23:11:25.448Z,17.23
2018-09-04T23:13:54.334Z,9.60
2018-09-04T23:16:23.211Z,13.30
2018-09-04T23:18:52.075Z,13.87
2018-09-04T23:21:20.970Z,11.13
2018-09-04T23:23:49.888Z,14.37
2018-09-04T23:26:18.770Z,14.13
2018-09-04T23:28:47.758Z,13.67
2018-09-04T23:31:16.565Z,15.80
2018-09-04T23:33:45.497Z,16.17
2018-09-04T23:36:14.389Z,19.07
2018-09-04T23:38:43.237Z,15.83
2018-09-04T23:41:12.085Z,15.90
2018-09-04T23:43:40.927Z,15.60
2018-09-04T23:46:09.763Z,17.40
2018-09-04T23:48:38.643Z,15.37
2018-09-04T23:51:07.561Z,19.20
2018-09-04T23:53:36.446Z,16.57
2018-09-04T23:56:05.463Z,17.60
2018-09-04T23:58:34.362Z,17.97
